sensor_id;sensor_type;location;lat;lon;timestamp;pressure;altitude;pressure_sealevel;temperature;humidity
42525;BME280;28151;41.940;25.546;2022-12-29T10:30:59;100011.69;;;7.71;100.00
42525;BME280;28151;41.940;25.546;2022-12-29T10:33:34;100009.13;;;7.76;100.00
42525;BME280;28151;41.940;25.546;2022-12-29T10:36:02;100005.31;;;7.84;100.00
42525;BME280;28151;41.940;25.546;2022-12-29T10:38:40;99996.72;;;7.94;100.00
42525;BME280;28151;41.940;25.546;2022-12-29T10:41:14;99995.09;;;8.05;100.00
42525;BME280;28151;41.940;25.546;2022-12-29T10:43:43;99992.97;;;8.18;100.00
42525;BME280;28151;41.940;25.546;2022-12-29T10:46:14;99989.69;;;8.28;100.00
42525;BME280;28151;41.940;25.546;2022-12-29T10:48:42;99984.31;;;8.40;100.00
42525;BME280;28151;41.940;25.546;2022-12-29T10:51:10;99977.91;;;8.53;100.00
42525;BME280;28151;41.940;25.546;2022-12-29T10:53:43;99984.22;;;8.64;100.00
42525;BME280;28151;41.940;25.546;2022-12-29T10:58:45;99974.72;;;8.85;100.00
42525;BME280;28151;41.940;25.546;2022-12-29T11:01:11;99973.03;;;8.96;100.00
42525;BME280;28151;41.940;25.546;2022-12-29T11:03:40;99969.63;;;9.01;100.00
42525;BME280;28151;41.940;25.546;2022-12-29T11:06:18;99960.97;;;9.10;100.00
42525;BME280;28151;41.940;25.546;2022-12-29T11:08:57;99960.00;;;9.17;100.00
42525;BME280;28151;41.940;25.546;2022-12-29T11:11:27;99961.94;;;9.21;100.00
42525;BME280;28151;41.940;25.546;2022-12-29T11:14:19;99958.06;;;9.29;100.00
42525;BME280;28151;41.940;25.546;2022-12-29T11:16:42;99956.84;;;9.37;100.00
42525;BME280;28151;41.940;25.546;2022-12-29T11:19:22;99945.75;;;9.45;100.00
42525;BME280;28151;41.940;25.546;2022-12-29T11:21:47;99943.72;;;9.52;100.00
42525;BME280;28151;41.940;25.546;2022-12-29T11:26:44;99939.31;;;9.63;100.00
42525;BME280;28151;41.940;25.546;2022-12-29T11:29:17;99932.41;;;9.67;100.00
42525;BME280;28151;41.940;25.546;2022-12-29T11:31:55;99928.75;;;9.73;100.00
42525;BME280;28151;41.940;25.546;2022-12-29T11:34:30;99930.41;;;9.80;100.00
42525;BME280;28151;41.940;25.546;2022-12-29T11:37:06;99925.13;;;9.85;100.00
42525;BME280;28151;41.940;25.546;2022-12-29T11:42:09;99924.22;;;9.96;100.00
42525;BME280;28151;41.940;25.546;2022-12-29T11:44:38;99922.63;;;10.00;100.00
42525;BME280;28151;41.940;25.546;2022-12-29T11:47:11;99923.94;;;9.98;100.00
42525;BME280;28151;41.940;25.546;2022-12-29T11:49:38;99926.38;;;9.99;100.00
42525;BME280;28151;41.940;25.546;2022-12-29T11:52:03;99925.63;;;10.04;100.00
42525;BME280;28151;41.940;25.546;2022-12-29T11:56:54;99910.69;;;10.08;100.00
42525;BME280;28151;41.940;25.546;2022-12-29T12:01:51;99912.91;;;10.16;100.00
42525;BME280;28151;41.940;25.546;2022-12-29T12:04:18;99912.16;;;10.21;100.00
42525;BME280;28151;41.940;25.546;2022-12-29T12:06:46;99907.38;;;10.23;100.00
42525;BME280;28151;41.940;25.546;2022-12-29T12:09:18;99903.13;;;10.27;100.00
42525;BME280;28151;41.940;25.546;2022-12-29T12:11:44;99905.81;;;10.27;100.00
42525;BME280;28151;41.940;25.546;2022-12-29T12:16:59;99902.69;;;10.35;100.00
42525;BME280;28151;41.940;25.546;2022-12-29T12:22:13;99894.44;;;10.37;100.00
42525;BME280;28151;41.940;25.546;2022-12-29T12:24:54;99889.09;;;10.37;100.00
42525;BME280;28151;41.940;25.546;2022-12-29T12:27:25;99884.31;;;10.39;100.00
42525;BME280;28151;41.940;25.546;2022-12-29T12:35:10;99889.47;;;10.51;100.00
42525;BME280;28151;41.940;25.546;2022-12-29T12:45:51;99877.31;;;10.70;100.00
42525;BME280;28151;41.940;25.546;2022-12-29T13:01:24;99885.56;;;10.96;100.00
42525;BME280;28151;41.940;25.546;2022-12-29T13:09:15;99880.97;;;10.92;100.00
42525;BME280;28151;41.940;25.546;2022-12-29T13:22:21;99888.25;;;11.01;100.00
42525;BME280;28151;41.940;25.546;2022-12-29T13:27:21;99896.88;;;11.09;100.00
42525;BME280;28151;41.940;25.546;2022-12-29T13:37:50;99889.91;;;11.13;100.00
42525;BME280;28151;41.940;25.546;2022-12-29T13:40:18;99891.03;;;11.17;100.00
42525;BME280;28151;41.940;25.546;2022-12-29T13:42:46;99882.75;;;11.18;100.00
42525;BME280;28151;41.940;25.546;2022-12-29T13:45:14;99893.72;;;11.22;100.00
42525;BME280;28151;41.940;25.546;2022-12-29T13:50:20;99890.50;;;11.20;100.00
42525;BME280;28151;41.940;25.546;2022-12-29T13:55:19;99892.69;;;11.23;100.00
42525;BME280;28151;41.940;25.546;2022-12-29T14:00:14;99897.75;;;11.25;100.00
42525;BME280;28151;41.940;25.546;2022-12-29T14:07:46;99897.22;;;11.28;98.95
42525;BME280;28151;41.940;25.546;2022-12-29T14:15:43;99892.13;;;11.26;99.55
42525;BME280;28151;41.940;25.546;2022-12-29T14:18:22;99898.56;;;11.25;99.23
42525;BME280;28151;41.940;25.546;2022-12-29T14:28:26;99893.19;;;11.20;99.59
42525;BME280;28151;41.940;25.546;2022-12-29T14:30:53;99898.81;;;11.18;99.85
42525;BME280;28151;41.940;25.546;2022-12-29T14:33:20;99899.31;;;11.15;99.51
42525;BME280;28151;41.940;25.546;2022-12-29T14:35:47;99900.91;;;11.11;100.00
42525;BME280;28151;41.940;25.546;2022-12-29T14:38:16;99891.22;;;11.05;100.00
42525;BME280;28151;41.940;25.546;2022-12-29T14:40:42;99889.31;;;11.00;100.00
42525;BME280;28151;41.940;25.546;2022-12-29T14:43:20;99894.94;;;10.99;100.00
42525;BME280;28151;41.940;25.546;2022-12-29T14:45:55;99893.59;;;10.96;100.00
42525;BME280;28151;41.940;25.546;2022-12-29T14:48:26;99891.13;;;10.95;100.00
42525;BME280;28151;41.940;25.546;2022-12-29T14:50:54;99895.13;;;10.92;100.00
42525;BME280;28151;41.940;25.546;2022-12-29T14:56:03;99895.09;;;10.82;100.00
42525;BME280;28151;41.940;25.546;2022-12-29T14:58:32;99885.41;;;10.76;100.00
42525;BME280;28151;41.940;25.546;2022-12-29T15:01:00;99891.78;;;10.69;100.00
42525;BME280;28151;41.940;25.546;2022-12-29T15:03:30;99887.19;;;10.65;100.00
42525;BME280;28151;41.940;25.546;2022-12-29T15:08:32;99894.81;;;10.51;100.00
42525;BME280;28151;41.940;25.546;2022-12-29T15:11:06;99892.84;;;10.41;100.00
42525;BME280;28151;41.940;25.546;2022-12-29T15:13:36;99889.03;;;10.32;100.00
42525;BME280;28151;41.940;25.546;2022-12-29T15:16:01;99892.16;;;10.23;100.00
42525;BME280;28151;41.940;25.546;2022-12-29T15:18:28;99889.91;;;10.15;100.00
42525;BME280;28151;41.940;25.546;2022-12-29T15:20:55;99887.47;;;10.08;100.00
42525;BME280;28151;41.940;25.546;2022-12-29T15:23:22;99893.81;;;10.02;100.00
42525;BME280;28151;41.940;25.546;2022-12-29T15:25:53;99886.81;;;9.96;100.00
42525;BME280;28151;41.940;25.546;2022-12-29T15:28:19;99896.94;;;9.94;100.00
42525;BME280;28151;41.940;25.546;2022-12-29T15:30:52;99897.19;;;9.92;100.00
42525;BME280;28151;41.940;25.546;2022-12-29T15:33:18;99898.50;;;9.90;100.00
42525;BME280;28151;41.940;25.546;2022-12-29T15:35:44;99900.34;;;9.89;100.00
